Terminal Aerodrome Forecast
Issued by NWS

Home | Current Version | Previous Version | Graphics & Text | Print | Product List | Glossary On
Versions: 1 2 3 4 5 6 7 8 9 10 11 12 13 14 15 16 17 18 19 20 21 22 23
817
FTUS43 KBIS 181228 AAA
TAFJMS
TAF AMD
KJMS 181228Z 1812/1912 08014G23KT P6SM BKN015 OVC025
     FM181400 04014G23KT P6SM VCSH OVC025
      TEMPO 1814/1817 3SM -SN OVC015
     FM181700 02016G24KT P6SM OVC040=

USA.gov is the U.S. government's official web portal to all federal, state and local government web resources and services.